Time;durP1;ratioP1;P1;durP2;ratioP2;P2;SDS_P1;SDS_P2;PMS_P1;PMS_P2;Temp;Humidity;BMP_temperature;BMP_pressure;BME280_temperature;BME280_humidity;BME280_pressure;Samples;Min_cycle;Max_cycle;Signal;HPM_P1;HPM_P2
2021/06/01 00:00:10;;;;;;;4.82;4.28;;;17.30;48.50;;;;;;4967843;28;20041;-78
2021/06/01 00:02:37;;;;;;;4.88;4.45;;;17.30;48.70;;;;;;4967448;28;20586;-77
2021/06/01 00:05:05;;;;;;;4.93;4.45;;;17.20;48.50;;;;;;4950940;28;20490;-78
2021/06/01 00:07:31;;;;;;;4.97;4.57;;;17.20;48.60;;;;;;4967052;28;20046;-79
2021/06/01 00:09:57;;;;;;;4.88;4.47;;;17.20;49.20;;;;;;4967433;28;20035;-78
2021/06/01 00:12:23;;;;;;;4.57;4.18;;;17.10;48.60;;;;;;4966370;28;20495;-77
2021/06/01 00:14:49;;;;;;;5.88;4.30;;;17.10;48.60;;;;;;4967696;28;20070;-77
2021/06/01 00:17:15;;;;;;;4.57;4.10;;;17.10;48.70;;;;;;4965929;28;20059;-77
2021/06/01 00:19:41;;;;;;;5.22;4.72;;;17.10;48.80;;;;;;4966301;28;20370;-77
2021/06/01 00:22:07;;;;;;;5.25;4.28;;;17.00;48.70;;;;;;4967579;28;20062;-77
2021/06/01 00:24:34;;;;;;;5.40;4.65;;;17.00;48.80;;;;;;4967590;28;20069;-77
2021/06/01 00:27:01;;;;;;;5.03;4.53;;;16.90;48.60;;;;;;4967163;28;20477;-77
2021/06/01 00:29:27;;;;;;;5.20;4.70;;;17.00;48.90;;;;;;4966203;28;20501;-78
2021/06/01 00:31:53;;;;;;;4.82;4.40;;;16.90;48.80;;;;;;4967687;28;20074;-76
2021/06/01 00:34:19;;;;;;;4.70;4.22;;;16.90;48.80;;;;;;4967146;28;20478;-76
2021/06/01 00:36:45;;;;;;;5.07;4.63;;;16.90;48.90;;;;;;4967304;28;20065;-76
2021/06/01 00:39:12;;;;;;;4.82;4.43;;;16.80;48.80;;;;;;4966749;28;20134;-78
2021/06/01 00:41:38;;;;;;;5.05;4.63;;;16.80;48.90;;;;;;4967099;28;20117;-77
2021/06/01 00:44:04;;;;;;;5.18;4.70;;;16.80;49.00;;;;;;4965694;28;20473;-76
2021/06/01 00:46:30;;;;;;;4.70;4.30;;;16.80;49.00;;;;;;4965837;28;20323;-76
2021/06/01 00:48:56;;;;;;;5.28;4.72;;;16.70;48.90;;;;;;4966692;28;20034;-77
2021/06/01 00:51:22;;;;;;;5.05;4.55;;;16.70;48.90;;;;;;4967288;28;20030;-76
2021/06/01 00:53:49;;;;;;;5.50;5.00;;;16.70;49.00;;;;;;4967395;28;20027;-76
2021/06/01 00:56:15;;;;;;;6.22;5.63;;;16.70;49.10;;;;;;4970375;28;20031;-76
2021/06/01 00:58:41;;;;;;;5.88;5.38;;;16.70;49.20;;;;;;4969350;28;20041;-77
2021/06/01 01:03:38;;;;;;;6.45;5.47;;;16.60;49.10;;;;;;4970689;28;20394;-76
2021/06/01 01:06:55;;;;;;;5.95;5.32;;;16.60;49.20;;;;;;4970566;28;20475;-77
2021/06/01 01:09:22;;;;;;;5.60;5.00;;;16.50;49.10;;;;;;4969322;28;20125;-77
2021/06/01 01:11:50;;;;;;;5.45;5.00;;;16.50;49.00;;;;;;4970512;28;20043;-77
2021/06/01 01:14:26;;;;;;;5.35;4.82;;;16.50;49.10;;;;;;4968829;28;20058;-77
2021/06/01 01:17:00;;;;;;;10.45;5.50;;;16.50;49.30;;;;;;4968880;28;20450;-77
2021/06/01 01:19:44;;;;;;;5.43;4.93;;;16.40;49.20;;;;;;4968994;28;20030;-76
2021/06/01 01:22:10;;;;;;;5.70;5.20;;;16.50;49.40;;;;;;4970555;28;20081;-76
2021/06/01 01:25:20;;;;;;;6.53;5.53;;;16.40;49.10;;;;;;4969310;28;20031;-78
2021/06/01 01:28:10;;;;;;;6.50;5.20;;;16.40;49.20;;;;;;4929305;29;20052;-76
2021/06/01 01:30:46;;;;;;;5.60;5.10;;;16.30;49.10;;;;;;4970256;28;20098;-78
2021/06/01 01:33:20;;;;;;;5.88;5.03;;;16.30;49.00;;;;;;4970508;28;20490;-77
2021/06/01 01:35:51;;;;;;;5.47;5.03;;;16.30;49.20;;;;;;4971877;28;20031;-76
2021/06/01 01:38:19;;;;;;;6.25;5.65;;;16.30;49.20;;;;;;4970512;28;20038;-78
2021/06/01 01:40:47;;;;;;;6.93;5.55;;;16.30;49.20;;;;;;4971776;28;20030;-76
2021/06/01 01:43:18;;;;;;;6.28;5.68;;;16.20;49.10;;;;;;4971973;28;20415;-76
2021/06/01 01:45:49;;;;;;;6.95;5.60;;;16.20;49.20;;;;;;4969611;28;20117;-78
2021/06/01 01:51:12;;;;;;;6.57;5.82;;;16.20;49.30;;;;;;4973455;28;20031;-76
2021/06/01 01:53:53;;;;;;;6.95;5.82;;;16.20;49.40;;;;;;4974505;28;20121;-76
2021/06/01 01:56:22;;;;;;;6.45;5.68;;;16.20;49.50;;;;;;4974468;28;20045;-77
2021/06/01 01:58:51;;;;;;;6.30;5.80;;;16.20;49.50;;;;;;4974698;28;20027;-77
2021/06/01 02:01:18;;;;;;;6.55;6.05;;;16.10;49.30;;;;;;4974752;28;20494;-77
2021/06/01 02:03:44;;;;;;;6.43;5.82;;;16.10;49.40;;;;;;4973371;28;20027;-77
2021/06/01 02:06:11;;;;;;;6.28;5.68;;;16.10;49.50;;;;;;4974073;28;20035;-76
2021/06/01 02:08:44;;;;;;;6.30;5.70;;;16.10;49.50;;;;;;4974536;28;20483;-78
2021/06/01 02:11:11;;;;;;;7.25;6.22;;;16.10;49.70;;;;;;4973104;28;20089;-76
2021/06/01 02:13:44;;;;;;;6.25;5.68;;;16.00;49.40;;;;;;4974394;28;20042;-76
2021/06/01 02:16:10;;;;;;;6.32;5.75;;;16.00;50.20;;;;;;4974329;28;20050;-76
2021/06/01 02:18:36;;;;;;;7.43;6.60;;;16.00;49.50;;;;;;4974124;28;20438;-77
2021/06/01 02:21:08;;;;;;;6.57;5.97;;;16.00;49.60;;;;;;4972904;28;20478;-77
2021/06/01 02:23:50;;;;;;;7.30;6.57;;;16.00;49.70;;;;;;4972925;28;20027;-76
2021/06/01 02:27:02;;;;;;;6.50;5.90;;;16.00;49.70;;;;;;4973797;28;20035;-78
2021/06/01 02:30:00;;;;;;;7.03;6.43;;;15.90;49.60;;;;;;4973908;28;20131;-76
2021/06/01 02:32:37;;;;;;;6.82;6.18;;;16.00;49.80;;;;;;4973973;28;20039;-77
2021/06/01 02:35:08;;;;;;;7.35;6.53;;;15.90;49.60;;;;;;4972811;28;20086;-77
2021/06/01 02:37:38;;;;;;;9.23;7.05;;;16.00;49.80;;;;;;4973563;28;20043;-77
2021/06/01 02:40:06;;;;;;;7.00;6.32;;;15.90;49.70;;;;;;4973716;28;20026;-78
2021/06/01 02:42:32;;;;;;;7.55;6.82;;;15.90;49.70;;;;;;4973979;28;20082;-77
2021/06/01 02:44:58;;;;;;;6.88;6.25;;;15.90;49.70;;;;;;4973486;28;20027;-77
2021/06/01 02:47:24;;;;;;;6.85;6.15;;;15.90;49.80;;;;;;4972548;28;20065;-78
2021/06/01 02:49:52;;;;;;;6.88;6.18;;;15.80;49.60;;;;;;4973423;28;20030;-77
2021/06/01 02:52:19;;;;;;;7.07;6.43;;;15.80;49.80;;;;;;4973658;28;20034;-77
2021/06/01 02:54:45;;;;;;;7.97;6.57;;;15.80;49.80;;;;;;4973616;28;20500;-77
2021/06/01 02:57:11;;;;;;;7.72;6.95;;;15.80;49.80;;;;;;4973538;28;20114;-79
2021/06/01 02:59:40;;;;;;;7.85;7.00;;;15.80;49.90;;;;;;4973393;28;20031;-80
2021/06/01 03:02:06;;;;;;;8.50;7.22;;;15.80;50.50;;;;;;4973696;28;20093;-78
2021/06/01 03:04:32;;;;;;;8.60;6.95;;;15.80;50.00;;;;;;4973214;28;20437;-78
2021/06/01 03:06:59;;;;;;;7.18;6.55;;;15.80;50.00;;;;;;4973558;28;20115;-79
2021/06/01 03:09:26;;;;;;;8.20;7.45;;;15.80;50.10;;;;;;4972002;28;20390;-78
2021/06/01 03:11:52;;;;;;;7.78;7.00;;;15.70;49.90;;;;;;4971889;28;20030;-78
2021/06/01 03:14:20;;;;;;;7.75;7.05;;;15.70;49.90;;;;;;4973379;28;20260;-79
2021/06/01 03:16:46;;;;;;;8.10;7.35;;;15.70;50.00;;;;;;4972795;28;20037;-78
2021/06/01 03:19:12;;;;;;;7.45;6.85;;;15.70;50.60;;;;;;4972751;28;20023;-79
2021/06/01 03:21:39;;;;;;;7.57;6.85;;;15.70;50.00;;;;;;4973011;28;20039;-78
2021/06/01 03:24:05;;;;;;;7.82;7.13;;;15.70;50.10;;;;;;4973169;28;20122;-79
2021/06/01 03:26:31;;;;;;;7.72;6.88;;;15.60;50.00;;;;;;4972913;28;20042;-79
2021/06/01 03:28:57;;;;;;;7.70;7.03;;;15.60;50.00;;;;;;4973220;28;20070;-77
2021/06/01 03:31:23;;;;;;;8.25;7.55;;;15.60;50.10;;;;;;4971605;28;20034;-78
2021/06/01 03:33:53;;;;;;;8.20;7.50;;;15.60;50.10;;;;;;4972748;28;20129;-77
2021/06/01 03:36:18;;;;;;;8.10;7.35;;;15.60;50.10;;;;;;4972793;28;20129;-76
2021/06/01 03:38:46;;;;;;;7.95;7.25;;;15.50;49.90;;;;;;4971448;28;20122;-77
2021/06/01 03:41:12;;;;;;;8.75;7.85;;;15.50;50.00;;;;;;4973105;28;20026;-77
2021/06/01 03:43:38;;;;;;;7.88;7.05;;;15.50;50.00;;;;;;4972840;28;20034;-77
2021/06/01 03:46:04;;;;;;;10.68;8.00;;;15.50;50.10;;;;;;4972579;28;20050;-76
2021/06/01 03:48:30;;;;;;;8.95;7.53;;;15.40;49.90;;;;;;4972658;28;20059;-77
2021/06/01 03:50:56;;;;;;;8.25;7.45;;;15.40;50.00;;;;;;4972583;28;20522;-78
2021/06/01 03:53:22;;;;;;;8.25;7.47;;;15.40;50.00;;;;;;4971543;28;20053;-76
2021/06/01 03:55:48;;;;;;;8.48;7.68;;;15.40;50.00;;;;;;4972409;28;20085;-77
2021/06/01 03:58:14;;;;;;;8.50;7.50;;;15.40;50.10;;;;;;4971445;28;20042;-77
2021/06/01 04:00:40;;;;;;;8.30;7.60;;;15.40;50.10;;;;;;4971104;28;20027;-77
2021/06/01 04:03:06;;;;;;;9.00;8.20;;;15.30;50.00;;;;;;4972501;28;20062;-77
2021/06/01 04:05:32;;;;;;;8.73;7.80;;;15.30;50.00;;;;;;4972295;28;20054;-77
2021/06/01 04:07:58;;;;;;;9.05;7.90;;;15.30;50.30;;;;;;4972643;28;20089;-77
2021/06/01 04:10:24;;;;;;;9.35;7.90;;;15.30;50.00;;;;;;4971055;28;20178;-76
2021/06/01 04:12:50;;;;;;;8.93;8.02;;;15.30;50.10;;;;;;4972275;28;20063;-77
2021/06/01 04:15:16;;;;;;;8.82;7.93;;;15.30;50.10;;;;;;4971097;28;20063;-77
2021/06/01 04:17:42;;;;;;;9.20;8.27;;;15.30;50.10;;;;;;4972482;28;20039;-78
2021/06/01 04:20:09;;;;;;;8.88;8.07;;;15.30;50.20;;;;;;4971171;28;20509;-79
2021/06/01 04:22:35;;;;;;;9.90;8.70;;;15.30;50.20;;;;;;4972580;28;20038;-79
2021/06/01 04:25:03;;;;;;;8.60;7.82;;;15.20;50.00;;;;;;4972089;28;20367;-78
2021/06/01 04:27:29;;;;;;;8.77;7.88;;;15.30;50.30;;;;;;4971227;28;20497;-79
2021/06/01 04:29:55;;;;;;;9.43;8.55;;;15.30;50.30;;;;;;4973421;28;20027;-79
2021/06/01 04:32:21;;;;;;;8.93;8.02;;;15.20;50.10;;;;;;4976615;28;20031;-79
2021/06/01 04:34:47;;;;;;;8.88;8.07;;;15.20;50.10;;;;;;4976085;28;20031;-79
2021/06/01 04:37:13;;;;;;;8.90;8.10;;;15.20;50.20;;;;;;4976288;28;20035;-79
2021/06/01 04:39:40;;;;;;;8.90;8.05;;;15.20;50.20;;;;;;4975029;28;20392;-79
2021/06/01 04:42:06;;;;;;;7.90;7.18;;;15.20;50.20;;;;;;4976236;28;20058;-78
2021/06/01 04:44:32;;;;;;;8.82;7.90;;;15.30;50.40;;;;;;4974894;28;20039;-79
2021/06/01 04:46:58;;;;;;;8.90;8.00;;;15.20;50.20;;;;;;4974099;28;20058;-80
2021/06/01 04:49:24;;;;;;;9.75;8.35;;;15.30;50.40;;;;;;4952852;28;20031;-78
2021/06/01 04:51:50;;;;;;;8.32;7.53;;;15.30;50.40;;;;;;4953670;28;20125;-78
2021/06/01 04:54:16;;;;;;;10.75;8.63;;;15.30;50.40;;;;;;4953018;28;20395;-77
2021/06/01 04:56:42;;;;;;;9.98;8.48;;;15.30;50.40;;;;;;4953203;28;20047;-79
2021/06/01 04:59:08;;;;;;;10.25;9.25;;;15.30;50.40;;;;;;4967437;28;20110;-79
2021/06/01 05:01:33;;;;;;;9.57;8.68;;;15.30;50.50;;;;;;4971536;28;20475;-79
2021/06/01 05:03:59;;;;;;;9.00;8.20;;;15.30;50.50;;;;;;4955493;28;20039;-79
2021/06/01 05:06:25;;;;;;;8.85;7.93;;;15.30;50.50;;;;;;4951562;28;20147;-80
2021/06/01 05:08:51;;;;;;;9.65;8.65;;;15.30;50.50;;;;;;4963952;28;20459;-81
2021/06/01 05:11:17;;;;;;;9.65;8.65;;;15.30;50.50;;;;;;4971305;28;20027;-80
2021/06/01 05:13:43;;;;;;;8.20;7.50;;;15.30;50.50;;;;;;4970155;28;20035;-79
2021/06/01 05:16:10;;;;;;;9.00;8.10;;;15.40;50.70;;;;;;4970806;28;20030;-78
2021/06/01 05:18:36;;;;;;;8.90;7.95;;;15.40;50.70;;;;;;4969055;28;20447;-79
2021/06/01 05:21:02;;;;;;;9.63;8.57;;;15.40;50.90;;;;;;4970512;28;20069;-87
2021/06/01 05:23:27;;;;;;;10.75;8.75;;;15.40;50.70;;;;;;4969152;28;20038;-79
2021/06/01 05:25:54;;;;;;;10.48;9.10;;;15.40;50.80;;;;;;4970318;28;20460;-79
2021/06/01 05:28:20;;;;;;;10.18;8.32;;;15.50;51.20;;;;;;4970124;28;20034;-80
2021/06/01 05:33:18;;;;;;;10.57;9.48;;;15.50;51.30;;;;;;4970330;28;20078;-78
2021/06/01 05:35:53;;;;;;;11.13;9.93;;;15.60;51.50;;;;;;4969073;28;20078;-78
2021/06/01 05:38:24;;;;;;;10.13;9.23;;;15.60;51.60;;;;;;4970254;28;20466;-79
2021/06/01 05:40:51;;;;;;;8.90;8.10;;;15.60;51.60;;;;;;4969873;28;20081;-79
2021/06/01 05:43:18;;;;;;;10.90;9.88;;;15.60;51.60;;;;;;4968860;28;20058;-80
2021/06/01 05:45:44;;;;;;;10.55;9.32;;;15.70;51.80;;;;;;4969903;28;20031;-82
2021/06/01 05:48:11;;;;;;;10.10;9.18;;;15.70;51.80;;;;;;4970516;28;20042;-81
2021/06/01 05:50:38;;;;;;;10.90;9.63;;;15.80;52.00;;;;;;4970144;28;20126;-83
2021/06/01 05:53:06;;;;;;;10.32;9.32;;;15.80;52.00;;;;;;4968671;28;20026;-81
2021/06/01 05:55:32;;;;;;;10.68;9.35;;;15.90;52.20;;;;;;4969223;28;20482;-81
2021/06/01 05:57:58;;;;;;;12.35;9.63;;;16.00;52.40;;;;;;4970299;28;20121;-82
2021/06/01 06:00:25;;;;;;;10.07;9.20;;;16.00;52.40;;;;;;4966283;28;20030;-81
2021/06/01 06:02:51;;;;;;;12.15;10.23;;;16.10;52.60;;;;;;4966213;28;20031;-79
2021/06/01 06:05:17;;;;;;;13.35;11.23;;;16.20;53.00;;;;;;4964852;28;20031;-80
2021/06/01 06:07:43;;;;;;;15.07;13.15;;;16.30;53.40;;;;;;4984153;28;20034;-82
2021/06/01 06:10:10;;;;;;;15.23;13.68;;;16.50;54.20;;;;;;4983391;28;20353;-84
2021/06/01 06:12:37;;;;;;;15.15;13.40;;;16.60;54.80;;;;;;4970395;28;20065;-82
2021/06/01 06:15:13;;;;;;;16.98;14.63;;;16.70;55.40;;;;;;4968085;28;20031;-79
2021/06/01 06:17:43;;;;;;;14.50;13.10;;;16.90;56.20;;;;;;4959756;28;20038;-79
2021/06/01 06:20:12;;;;;;;16.35;14.38;;;17.00;56.40;;;;;;4970043;28;20094;-79
2021/06/01 06:22:38;;;;;;;15.20;13.60;;;17.20;56.90;;;;;;4969444;28;20045;-86
2021/06/01 06:25:09;;;;;;;16.77;15.07;;;17.40;57.30;;;;;;4968313;28;20046;-81
2021/06/01 06:27:37;;;;;;;17.80;15.40;;;17.50;57.50;;;;;;4968717;28;20490;-79
2021/06/01 06:30:05;;;;;;;18.35;15.13;;;17.70;57.40;;;;;;4965240;28;20035;-79
2021/06/01 06:32:31;;;;;;;16.98;14.95;;;17.90;57.50;;;;;;4968195;28;20078;-80
2021/06/01 06:34:57;;;;;;;15.95;14.35;;;18.10;57.50;;;;;;4967672;28;20038;-79
2021/06/01 06:37:23;;;;;;;17.63;15.60;;;18.30;57.50;;;;;;4965710;28;20054;-79
2021/06/01 06:39:50;;;;;;;17.48;14.38;;;18.50;57.40;;;;;;4967727;28;20053;-81
2021/06/01 06:42:19;;;;;;;17.50;15.48;;;18.80;57.50;;;;;;4967342;28;20070;-77
2021/06/01 06:44:51;;;;;;;15.70;14.10;;;19.00;57.40;;;;;;4966370;28;20031;-78
2021/06/01 06:47:25;;;;;;;14.60;13.10;;;19.30;57.50;;;;;;4967991;28;20061;-80
2021/06/01 06:49:54;;;;;;;16.77;14.43;;;19.50;57.30;;;;;;4950003;28;20118;-77
2021/06/01 06:52:20;;;;;;;16.90;15.10;;;19.80;57.30;;;;;;4952277;28;20039;-79
2021/06/01 06:54:46;;;;;;;18.65;14.80;;;20.00;57.00;;;;;;4969717;28;20489;-77
2021/06/01 06:57:12;;;;;;;18.05;15.38;;;20.20;56.90;;;;;;4967828;28;20038;-78
2021/06/01 06:59:38;;;;;;;14.98;13.55;;;20.40;56.60;;;;;;4968834;28;20043;-79
2021/06/01 07:02:06;;;;;;;15.40;13.88;;;20.70;56.60;;;;;;4969122;28;20031;-77
2021/06/01 07:04:32;;;;;;;16.27;14.80;;;20.90;56.40;;;;;;4968048;28;20027;-78
2021/06/01 07:06:59;;;;;;;15.40;12.85;;;21.10;56.20;;;;;;4969341;28;20426;-77
2021/06/01 07:09:25;;;;;;;14.65;13.15;;;21.40;56.20;;;;;;4968422;28;20069;-78
2021/06/01 07:11:51;;;;;;;19.10;13.52;;;21.60;55.90;;;;;;4968847;28;20031;-77
2021/06/01 07:14:17;;;;;;;14.80;12.95;;;21.80;55.70;;;;;;4968773;28;20726;-79
2021/06/01 07:16:44;;;;;;;17.08;13.30;;;22.00;55.50;;;;;;4969079;28;20035;-79
2021/06/01 07:19:12;;;;;;;14.25;12.40;;;22.20;55.30;;;;;;4969093;28;20046;-77
2021/06/01 07:21:38;;;;;;;15.88;13.18;;;22.40;55.00;;;;;;4968965;28;20161;-82
2021/06/01 07:24:05;;;;;;;16.83;12.90;;;22.70;55.00;;;;;;4969049;28;20033;-76
2021/06/01 07:26:32;;;;;;;13.20;11.95;;;22.90;54.70;;;;;;4967269;28;20062;-79
2021/06/01 07:28:59;;;;;;;15.85;11.90;;;23.10;54.60;;;;;;4968025;28;20035;-79
2021/06/01 07:31:25;;;;;;;14.60;12.55;;;23.30;54.30;;;;;;4950723;28;20027;-79
2021/06/01 07:33:52;;;;;;;12.25;10.95;;;23.60;54.30;;;;;;4967508;28;20130;-79
2021/06/01 07:36:18;;;;;;;14.15;11.73;;;23.90;54.20;;;;;;4965898;28;20034;-79
2021/06/01 07:38:44;;;;;;;12.68;11.10;;;24.10;53.90;;;;;;4963224;28;20043;-78
2021/06/01 07:41:10;;;;;;;12.23;11.00;;;24.40;53.90;;;;;;4968013;28;20027;-78
2021/06/01 07:43:37;;;;;;;13.38;11.77;;;24.70;53.70;;;;;;4968306;28;20038;-80
2021/06/01 07:46:03;;;;;;;12.15;10.93;;;24.90;53.40;;;;;;4967013;28;20045;-77
2021/06/01 07:48:38;;;;;;;15.98;11.55;;;25.20;53.10;;;;;;4967771;28;20057;-78
2021/06/01 07:51:10;;;;;;;18.70;11.30;;;25.50;52.60;;;;;;4967450;28;20117;-77
2021/06/01 07:53:41;;;;;;;11.10;10.00;;;25.90;52.10;;;;;;4968103;28;20038;-79
2021/06/01 07:56:09;;;;;;;13.15;10.55;;;26.20;51.30;;;;;;4967553;28;20027;-79
2021/06/01 07:58:35;;;;;;;11.85;10.35;;;26.60;50.90;;;;;;4950673;28;20073;-80
2021/06/01 08:01:01;;;;;;;12.48;10.85;;;26.90;50.30;;;;;;4966830;28;20289;-78
2021/06/01 08:03:27;;;;;;;12.75;10.40;;;27.20;49.60;;;;;;4967227;28;20038;-79
2021/06/01 08:05:54;;;;;;;13.27;10.48;;;27.60;49.00;;;;;;4967092;28;20390;-77
2021/06/01 08:08:20;;;;;;;11.18;10.07;;;28.00;48.30;;;;;;4967487;28;20386;-79
2021/06/01 08:10:46;;;;;;;14.43;10.45;;;28.30;47.40;;;;;;4967445;28;20115;-81
2021/06/01 08:13:12;;;;;;;13.85;9.25;;;28.60;47.00;;;;;;4949749;28;20027;-78
2021/06/01 08:15:39;;;;;;;11.27;8.55;;;28.90;46.50;;;;;;4967760;28;20050;-78
2021/06/01 08:18:05;;;;;;;9.60;8.60;;;29.30;45.90;;;;;;4967972;28;20097;-79
2021/06/01 08:20:37;;;;;;;8.10;7.30;;;29.80;45.30;;;;;;4968180;28;20041;-80
2021/06/01 08:23:03;;;;;;;8.43;7.00;;;30.20;44.60;;;;;;4967991;28;20026;-79
2021/06/01 08:25:29;;;;;;;10.95;7.20;;;30.70;43.90;;;;;;4967927;28;20435;-80
2021/06/01 08:27:57;;;;;;;8.45;6.63;;;31.20;43.30;;;;;;4967736;28;20490;-79
2021/06/01 08:30:23;;;;;;;8.07;6.78;;;31.60;42.60;;;;;;4967828;28;20495;-79
2021/06/01 08:32:50;;;;;;;8.52;5.72;;;32.00;42.10;;;;;;4967922;28;20066;-79
2021/06/01 08:35:16;;;;;;;6.53;5.93;;;32.30;41.50;;;;;;4967066;28;20125;-84
2021/06/01 08:37:42;;;;;;;9.13;5.10;;;32.60;41.00;;;;;;4968691;28;20528;-86
2021/06/01 08:40:08;;;;;;;6.57;5.28;;;32.90;40.60;;;;;;4968733;28;20038;-85
2021/06/01 08:42:36;;;;;;;6.60;5.10;;;33.20;40.30;;;;;;4969073;28;20046;-80
2021/06/01 08:45:05;;;;;;;5.80;4.70;;;33.40;39.90;;;;;;4969035;28;20514;-86
2021/06/01 08:47:32;;;;;;;6.78;4.38;;;33.60;39.60;;;;;;4967248;28;20050;-80
2021/06/01 08:50:01;;;;;;;6.18;4.85;;;33.60;39.30;;;;;;4967226;28;20034;-82
2021/06/01 08:52:27;;;;;;;4.45;4.05;;;33.70;39.00;;;;;;4968433;28;20039;-79
2021/06/01 08:54:54;;;;;;;5.72;4.63;;;33.70;39.00;;;;;;4951519;28;20031;-81
2021/06/01 08:57:21;;;;;;;7.93;6.20;;;33.60;38.90;;;;;;4966168;28;20126;-83
2021/06/01 08:59:47;;;;;;;5.32;4.82;;;33.50;38.90;;;;;;4967510;28;20446;-81
2021/06/01 09:02:22;;;;;;;5.68;5.05;;;33.30;38.90;;;;;;4950381;28;20645;-80
2021/06/01 09:04:57;;;;;;;5.28;4.78;;;33.10;39.10;;;;;;4967943;28;20031;-80
2021/06/01 09:07:46;;;;;;;7.30;4.88;;;32.80;39.40;;;;;;4966574;28;20042;-81
2021/06/01 09:13:40;;;;;;;5.35;4.85;;;32.00;40.70;;;;;;4955740;28;20390;-78
2021/06/01 09:21:46;;;;;;;9.18;5.25;;;31.40;41.80;;;;;;4955798;28;20047;-80
2021/06/01 09:24:13;;;;;;;5.50;4.60;;;31.40;41.70;;;;;;4968887;28;20026;-80
2021/06/01 09:26:39;;;;;;;6.22;4.43;;;31.40;41.70;;;;;;4970520;28;20066;-79
2021/06/01 09:29:06;;;;;;;5.18;4.68;;;31.50;41.80;;;;;;4969939;28;20500;-79
2021/06/01 09:31:32;;;;;;;6.65;4.95;;;31.40;41.70;;;;;;4969524;28;20373;-79
2021/06/01 09:33:58;;;;;;;5.22;4.72;;;31.30;41.70;;;;;;4969697;28;20037;-81
2021/06/01 09:36:25;;;;;;;4.80;4.05;;;31.30;41.80;;;;;;4970375;28;20125;-79
2021/06/01 09:38:51;;;;;;;4.70;4.25;;;31.20;41.80;;;;;;4970383;28;20030;-80
2021/06/01 09:41:24;;;;;;;4.82;3.92;;;31.20;42.00;;;;;;4969680;28;20085;-78
2021/06/01 09:44:04;;;;;;;5.32;4.70;;;31.10;42.20;;;;;;4952845;28;20075;-78
2021/06/01 09:46:46;;;;;;;7.82;4.75;;;31.00;42.20;;;;;;4970703;28;20050;-79
2021/06/01 09:49:12;;;;;;;8.38;4.57;;;30.90;41.60;;;;;;4969739;28;20258;-77
2021/06/01 09:51:41;;;;;;;8.68;4.40;;;30.70;41.40;;;;;;4970632;28;20049;-78
2021/06/01 09:54:37;;;;;;;5.88;3.85;;;30.50;41.40;;;;;;4971202;28;20049;-85
2021/06/01 09:57:21;;;;;;;5.88;4.25;;;30.20;41.30;;;;;;4971401;28;20038;-79
2021/06/01 10:00:13;;;;;;;5.35;4.40;;;30.00;41.60;;;;;;4968933;28;20031;-83
2021/06/01 10:02:46;;;;;;;6.60;4.15;;;29.80;41.70;;;;;;4968522;28;20034;-86
2021/06/01 10:05:18;;;;;;;5.03;4.07;;;29.70;41.80;;;;;;4969458;28;20094;-79
2021/06/01 10:07:45;;;;;;;9.07;4.45;;;29.60;41.50;;;;;;4969583;28;20039;-82
2021/06/01 10:10:17;;;;;;;6.40;4.20;;;29.60;41.40;;;;;;4970928;28;20135;-80
2021/06/01 10:12:55;;;;;;;6.57;4.82;;;29.50;41.40;;;;;;4970146;28;20122;-82
2021/06/01 10:15:24;;;;;;;7.05;5.07;;;29.40;41.20;;;;;;4969465;28;20038;-80
2021/06/01 10:17:51;;;;;;;6.72;4.28;;;29.40;41.30;;;;;;4968305;28;20042;-85
2021/06/01 10:20:23;;;;;;;6.25;4.38;;;29.40;41.30;;;;;;4968510;28;20045;-80
2021/06/01 10:22:50;;;;;;;5.57;3.87;;;29.40;41.40;;;;;;4970098;28;20459;-82
2021/06/01 10:25:17;;;;;;;4.55;3.45;;;29.30;41.50;;;;;;4969267;28;20499;-83
2021/06/01 10:27:45;;;;;;;6.93;4.22;;;29.40;41.40;;;;;;4969208;28;20042;-81
2021/06/01 10:30:13;;;;;;;3.55;3.25;;;29.40;41.10;;;;;;4952074;28;20030;-84
2021/06/01 10:33:10;;;;;;;5.35;3.60;;;29.40;40.80;;;;;;4952365;28;20062;-81
2021/06/01 10:35:41;;;;;;;4.28;3.55;;;29.40;40.90;;;;;;4969021;28;20038;-79
2021/06/01 10:52:22;;;;;;;5.32;3.83;;;29.40;40.30;;;;;;4971098;28;20119;-81
2021/06/01 10:54:52;;;;;;;10.05;4.50;;;29.30;40.20;;;;;;4969433;28;20079;-84
2021/06/01 10:57:19;;;;;;;3.83;3.33;;;29.30;40.00;;;;;;4969463;28;20505;-80
2021/06/01 11:02:25;;;;;;;4.93;3.35;;;29.40;40.30;;;;;;4969893;28;20114;-81
2021/06/01 11:05:06;;;;;;;6.43;3.53;;;29.40;40.50;;;;;;4969081;28;20073;-84
2021/06/01 11:07:55;;;;;;;6.28;3.92;;;29.40;41.00;;;;;;4969086;28;20043;-84
2021/06/01 11:10:38;;;;;;;4.53;4.00;;;29.60;40.50;;;;;;4968987;28;20402;-82
2021/06/01 11:13:05;;;;;;;;;;;29.60;40.70;;;;;;4969468;28;20399;-83
2021/06/01 11:15:33;;;;;;;4.63;4.18;;;29.60;40.90;;;;;;4967472;28;19910;-80
2021/06/01 11:18:14;;;;;;;5.60;4.03;;;29.60;40.70;;;;;;4969344;28;20113;-83
2021/06/01 11:21:15;;;;;;;7.32;3.50;;;29.70;40.60;;;;;;4967617;28;20376;-82
2021/06/01 11:33:20;;;;;;;5.03;2.95;;;29.90;39.90;;;;;;4968307;28;20078;-84
2021/06/01 11:35:55;;;;;;;5.28;3.17;;;30.00;40.00;;;;;;4968525;28;20027;-84
2021/06/01 11:38:35;;;;;;;4.88;3.17;;;30.10;39.80;;;;;;4967848;28;20506;-81
2021/06/01 11:43:35;;;;;;;4.32;3.13;;;30.20;39.20;;;;;;4969674;28;20034;-81
2021/06/01 11:46:26;;;;;;;7.45;2.80;;;30.30;38.90;;;;;;4968998;28;20066;-80
2021/06/01 11:51:27;;;;;;;8.93;3.00;;;30.30;38.40;;;;;;4967540;28;20046;-82
2021/06/01 11:54:13;;;;;;;3.95;2.65;;;30.30;37.90;;;;;;4966908;28;20178;-80
2021/06/01 11:56:47;;;;;;;4.68;2.72;;;30.30;37.90;;;;;;4969129;28;20482;-79
2021/06/01 12:02:19;;;;;;;3.53;2.88;;;30.40;38.00;;;;;;4968574;28;20050;-85
2021/06/01 12:18:41;;;;;;;3.22;2.92;;;30.50;37.50;;;;;;4966870;28;20549;-80
2021/06/01 12:21:20;;;;;;;5.30;3.05;;;30.50;37.40;;;;;;4968525;28;20031;-81
2021/06/01 12:24:13;;;;;;;5.60;2.90;;;30.50;37.10;;;;;;4967367;28;20213;-83
2021/06/01 12:26:56;;;;;;;3.58;2.83;;;30.50;37.10;;;;;;4950994;28;20039;-86
2021/06/01 12:32:13;;;;;;;3.90;2.90;;;30.60;36.90;;;;;;4966324;28;20396;-79
2021/06/01 12:45:39;;;;;;;6.15;3.45;;;30.80;37.10;;;;;;4967754;28;20034;-85
2021/06/01 13:19:27;;;;;;;3.75;3.10;;;31.40;36.90;;;;;;4970500;28;20035;-82
2021/06/01 13:38:50;;;;;;;5.38;2.65;;;31.10;37.40;;;;;;4969110;28;20035;-82
2021/06/01 13:47:08;;;;;;;5.57;3.10;;;31.10;36.90;;;;;;4969052;28;20329;-81
2021/06/01 13:49:45;;;;;;;6.40;2.70;;;31.20;37.00;;;;;;4970381;28;20482;-83
2021/06/01 15:49:56;;;;;;;3.90;3.42;;;32.20;35.50;;;;;;4968019;28;20039;-80
2021/06/01 17:03:31;;;;;;;3.00;2.67;;;31.20;35.60;;;;;;4971742;28;20478;-81
2021/06/01 17:06:05;;;;;;;3.80;3.30;;;31.10;35.60;;;;;;4971317;28;20035;-84
2021/06/01 17:11:20;;;;;;;5.25;3.17;;;31.00;35.60;;;;;;4964119;28;20031;-83
2021/06/01 17:13:54;;;;;;;6.13;3.25;;;30.90;35.60;;;;;;4971683;28;20475;-86
2021/06/01 17:16:41;;;;;;;5.68;2.75;;;30.90;35.70;;;;;;4970045;28;20093;-82
2021/06/01 17:24:23;;;;;;;4.38;3.10;;;30.90;35.50;;;;;;4970818;28;20054;-86
2021/06/01 17:35:07;;;;;;;5.80;3.08;;;30.90;35.60;;;;;;4970588;28;20054;-82
2021/06/01 17:37:34;;;;;;;6.90;3.38;;;30.80;35.70;;;;;;4969833;28;20082;-82
2021/06/01 17:40:01;;;;;;;3.78;3.22;;;30.70;35.80;;;;;;4969160;28;20545;-83
2021/06/01 17:42:30;;;;;;;5.80;3.10;;;30.70;36.00;;;;;;4969966;28;20089;-82
2021/06/01 17:45:02;;;;;;;4.13;2.90;;;30.60;36.10;;;;;;4969006;28;20085;-81
2021/06/01 17:47:31;;;;;;;5.55;2.92;;;30.50;36.30;;;;;;4969797;28;20047;-82
2021/06/01 17:49:57;;;;;;;6.38;2.97;;;30.40;36.40;;;;;;4969528;28;20090;-82
2021/06/01 17:52:25;;;;;;;3.22;2.88;;;30.30;36.50;;;;;;4966994;28;20082;-83
2021/06/01 17:54:53;;;;;;;3.20;2.90;;;30.30;36.80;;;;;;4952671;28;20042;-82
2021/06/01 17:57:21;;;;;;;2.92;2.67;;;30.20;36.60;;;;;;4969309;28;20031;-81
2021/06/01 17:59:47;;;;;;;4.57;2.78;;;30.10;36.40;;;;;;4969890;28;20077;-81
2021/06/01 18:02:17;;;;;;;5.70;2.50;;;30.10;36.30;;;;;;4969711;28;20046;-81
2021/06/01 18:04:49;;;;;;;6.75;2.72;;;30.00;36.00;;;;;;4968934;28;20027;-83
2021/06/01 18:07:30;;;;;;;3.53;2.47;;;29.90;35.90;;;;;;4970268;28;20050;-80
2021/06/01 19:02:16;;;;;;;2.13;1.92;;;27.90;36.80;;;;;;4967939;28;20039;-83
2021/06/01 19:06:05;;;;;;;4.78;2.78;;;27.80;37.20;;;;;;4966892;28;20065;-83
2021/06/01 19:24:54;;;;;;;3.63;2.30;;;26.80;39.40;;;;;;4966327;28;20074;-83
2021/06/01 19:27:56;;;;;;;3.88;2.88;;;26.60;39.50;;;;;;4951658;28;20086;-84
2021/06/01 19:49:53;;;;;;;2.88;2.47;;;26.00;40.90;;;;;;4971404;28;20046;-85
2021/06/01 19:49:58;;;;;;;6.65;2.50;;;25.80;41.30;;;;;;4967794;28;20550;-82
2021/06/01 19:52:31;;;;;;;10.20;3.28;;;25.70;41.50;;;;;;4968814;28;20031;-84
2021/06/01 19:55:01;;;;;;;3.90;2.20;;;25.60;41.80;;;;;;4968890;28;20233;-85
2021/06/01 19:57:27;;;;;;;3.15;2.60;;;25.40;41.80;;;;;;4967204;28;20130;-82
2021/06/01 19:59:55;;;;;;;3.78;2.63;;;25.30;42.00;;;;;;4969734;28;20035;-81